プーケット の空港の天気 - METARとTAF

プーケット国際空港 ( VTSP / HKT ) - タイ プーケット県
飛行場実況気象(Metar)
観測時間08/05 08:00 ICT (08/05 01:00 UTC)
風向・風速不定 1m/s
視程10km以上
天気現象
少しの雲 雲底高度 550m
全天の4割程度の雲 雲底高度 3050m
気温28℃
湿度84%
気圧1007hPa
METARVTSP 050100Z VRB02KT 9999 FEW018TCU SCT100 28/25 Q1007 NOSIG
過去の天気等 Google飛行場航空写真 Wunderground天気予報

過去48時間のMETAR

飛行場予報(TAF)
発表時間: 8/05 06:00 ICT (8/04 23:00 UTC)
予報対象時間: 5日7時 ICT ~ 6日13時 ICT
風向・風速静穏
視程10km以上
少しの雲 雲底高度 610m
全天の4割程度の雲 雲底高度 3050m
5日7時 ICT ~ 5日9時 ICT に徐々に
風向・風速西南西 4m/s
5日19時 ICT ~ 5日21時 ICT に徐々に
風向・風速静穏
TAF VTSP 042300Z 0500/0606 00000KT 9999 FEW020 SCT100
BECMG 0500/0502 24008KT
BECMG 0512/0514 00000KT